createdAt,value
2019-03-10T00:01:17.054Z,100796.61
2019-03-10T00:03:46.321Z,100788.09
2019-03-10T00:06:15.487Z,100782.11
2019-03-10T00:08:44.971Z,100778.67
2019-03-10T00:11:14.307Z,100773.18
2019-03-10T00:13:43.734Z,100778.09
2019-03-10T00:16:13.038Z,100775.02
2019-03-10T00:18:42.219Z,100778.80
2019-03-10T00:21:13.542Z,100784.00
2019-03-10T00:23:43.620Z,100783.48
2019-03-10T00:26:15.603Z,100782.55
2019-03-10T00:28:44.771Z,100775.75
2019-03-10T00:31:19.161Z,100785.52
2019-03-10T00:33:50.456Z,100781.65
2019-03-10T00:36:19.807Z,100774.77
2019-03-10T00:39:09.735Z,100775.85
2019-03-10T00:42:03.728Z,100762.25
2019-03-10T00:45:09.210Z,100758.09
2019-03-10T00:48:17.083Z,100750.27
2019-03-10T00:51:26.620Z,100743.87
2019-03-10T00:53:55.922Z,100729.15
2019-03-10T00:56:25.182Z,100733.94
2019-03-10T00:58:54.497Z,100729.59
2019-03-10T01:01:23.666Z,100728.79
2019-03-10T01:03:53.182Z,100723.62
2019-03-10T01:06:22.485Z,100720.12
2019-03-10T01:11:26.296Z,100716.41
2019-03-10T01:13:55.722Z,100717.14
2019-03-10T01:16:25.229Z,100720.09
2019-03-10T01:32:00.947Z,100689.99
2019-03-10T01:34:53.032Z,100684.87
2019-03-10T01:44:55.455Z,100646.55
2019-03-10T01:47:24.976Z,100638.05
2019-03-10T01:49:54.148Z,100624.08
2019-03-10T01:52:23.589Z,100616.84
2019-03-10T01:55:05.441Z,100611.80
2019-03-10T02:01:50.101Z,100595.09
2019-03-10T02:04:31.363Z,100592.40
2019-03-10T02:07:00.879Z,100576.13
2019-03-10T02:09:30.341Z,100565.45
2019-03-10T02:11:59.813Z,100571.05
2019-03-10T02:14:29.325Z,100563.24
2019-03-10T02:16:58.789Z,100565.95
2019-03-10T02:20:41.655Z,100555.56
2019-03-10T02:23:11.228Z,100549.02
2019-03-10T02:25:40.566Z,100533.57
2019-03-10T02:28:10.000Z,100528.83
2019-03-10T02:30:39.414Z,100519.84
2019-03-10T02:33:08.891Z,100513.45
2019-03-10T02:35:38.373Z,100509.70
2019-03-10T02:38:07.895Z,100508.06
2019-03-10T02:51:52.356Z,100468.52
2019-03-10T02:54:21.735Z,100458.02
2019-03-10T02:56:51.108Z,100452.89
2019-03-10T02:59:20.667Z,100447.36
2019-03-10T03:01:50.331Z,100440.56
2019-03-10T03:04:21.089Z,100436.28
2019-03-10T03:06:50.536Z,100430.63
2019-03-10T03:09:24.342Z,100429.52
2019-03-10T03:11:59.315Z,100424.73
2019-03-10T03:14:32.293Z,100420.94
2019-03-10T03:17:04.147Z,100416.87
2019-03-10T03:19:36.579Z,100405.13
2019-03-10T03:22:11.211Z,100400.64
2019-03-10T03:24:44.129Z,100396.09
2019-03-10T03:27:13.067Z,100384.39
2019-03-10T03:32:46.788Z,100367.53
2019-03-10T03:36:08.624Z,100356.38
2019-03-10T03:38:49.799Z,100353.41
2019-03-10T03:41:19.807Z,100350.55
2019-03-10T03:43:51.272Z,100338.05
2019-03-10T03:46:19.824Z,100336.70
2019-03-10T03:48:49.212Z,100338.56
2019-03-10T03:51:18.669Z,100323.66
2019-03-10T03:53:48.120Z,100320.84
2019-03-10T03:56:17.441Z,100310.05
2019-03-10T03:58:46.799Z,100294.44
2019-03-10T04:01:28.692Z,100286.61
2019-03-10T04:03:58.085Z,100276.34
2019-03-10T04:06:27.751Z,100267.09
2019-03-10T04:08:57.450Z,100264.03
2019-03-10T04:11:27.334Z,100265.88
2019-03-10T04:13:57.074Z,100268.59
2019-03-10T04:16:26.595Z,100253.89
2019-03-10T04:18:56.111Z,100247.58
2019-03-10T04:21:25.820Z,100239.33
2019-03-10T04:23:55.594Z,100229.13
2019-03-10T04:26:27.916Z,100237.41
2019-03-10T04:28:57.628Z,100234.22
2019-03-10T04:31:27.701Z,100225.05
2019-03-10T04:33:57.772Z,100222.66
2019-03-10T04:36:27.880Z,100214.14
2019-03-10T04:38:57.982Z,100205.95
2019-03-10T04:41:28.332Z,100199.92
2019-03-10T04:43:58.521Z,100189.11
2019-03-10T04:46:28.581Z,100184.68
2019-03-10T04:56:07.541Z,100158.25
2019-03-10T04:58:40.567Z,100149.80
2019-03-10T05:01:09.715Z,100131.42
2019-03-10T05:11:47.834Z,100081.39
2019-03-10T05:18:26.192Z,100073.59
2019-03-10T05:20:55.248Z,100072.41
2019-03-10T05:23:28.791Z,100068.20
2019-03-10T05:30:47.832Z,100061.06
2019-03-10T05:33:17.278Z,100056.80
2019-03-10T05:39:46.185Z,100042.77
2019-03-10T05:42:18.809Z,100033.03
2019-03-10T05:44:48.020Z,100026.23
2019-03-10T05:47:17.294Z,100021.34
2019-03-10T05:49:46.313Z,100010.27
2019-03-10T05:52:15.418Z,100005.08
2019-03-10T05:54:44.611Z,99997.80
2019-03-10T05:57:13.575Z,99984.34
2019-03-10T06:00:14.159Z,99977.94
2019-03-10T06:06:49.841Z,99948.42
2019-03-10T06:09:18.895Z,99948.66
2019-03-10T06:16:44.557Z,99928.94
2019-03-10T06:19:14.659Z,99916.80
2019-03-10T06:21:43.795Z,99912.20
2019-03-10T06:24:12.966Z,99908.20
2019-03-10T06:31:15.782Z,99900.98
2019-03-10T06:33:45.410Z,99893.62
2019-03-10T06:50:02.275Z,99859.18
2019-03-10T07:04:42.269Z,99821.03
2019-03-10T07:08:45.546Z,99794.69
2019-03-10T07:12:45.206Z,99789.21
2019-03-10T07:15:20.196Z,99798.00
2019-03-10T07:17:50.918Z,99776.69
2019-03-10T07:20:20.838Z,99781.08
2019-03-10T07:22:51.090Z,99774.05
2019-03-10T07:25:24.678Z,99774.98
2019-03-10T07:28:09.244Z,99767.41
2019-03-10T07:31:01.077Z,99759.88
2019-03-10T07:34:01.500Z,99753.85
2019-03-10T07:36:50.354Z,99750.45
2019-03-10T07:39:45.414Z,99753.84
2019-03-10T07:42:35.410Z,99739.39
2019-03-10T07:45:19.472Z,99731.58
2019-03-10T07:48:11.498Z,99724.09
2019-03-10T07:50:52.409Z,99725.30
2019-03-10T07:53:50.265Z,99732.94
2019-03-10T07:56:47.285Z,99716.94
2019-03-10T07:59:34.792Z,99722.09
2019-03-10T08:02:29.842Z,99719.41
2019-03-10T08:05:33.602Z,99716.84
2019-03-10T08:08:20.568Z,99713.38
2019-03-10T08:11:03.261Z,99707.36
2019-03-10T08:14:06.557Z,99695.23
2019-03-10T08:17:06.745Z,99686.78
2019-03-10T08:19:46.698Z,99687.92
2019-03-10T08:22:33.732Z,99682.27
2019-03-10T08:25:20.607Z,99681.30
2019-03-10T08:28:21.030Z,99680.38
2019-03-10T08:31:06.378Z,99673.61
2019-03-10T08:34:09.824Z,99668.36
2019-03-10T08:36:51.770Z,99670.00
2019-03-10T08:39:36.854Z,99659.48
2019-03-10T08:42:26.128Z,99658.67
2019-03-10T08:45:17.025Z,99662.53
2019-03-10T08:48:02.658Z,99648.47
2019-03-10T08:50:40.240Z,99650.35
2019-03-10T08:53:15.361Z,99632.35
2019-03-10T08:56:06.757Z,99616.69
2019-03-10T08:58:53.557Z,99623.21
2019-03-10T09:01:46.980Z,99631.68
2019-03-10T09:04:35.239Z,99614.95
2019-03-10T09:07:22.563Z,99594.89
2019-03-10T09:10:07.404Z,99580.06
2019-03-10T09:12:51.453Z,99577.64
2019-03-10T09:15:42.347Z,99567.91
2019-03-10T09:18:30.625Z,99561.88
2019-03-10T09:21:22.148Z,99548.04
2019-03-10T09:24:08.866Z,99537.40
2019-03-10T09:27:06.291Z,99532.08
2019-03-10T09:29:48.439Z,99517.33
2019-03-10T09:32:39.163Z,99510.66
2019-03-10T09:35:30.506Z,99510.36
2019-03-10T09:38:05.974Z,99504.81
2019-03-10T09:40:53.388Z,99492.69
2019-03-10T09:43:30.212Z,99484.69
2019-03-10T09:46:18.588Z,99477.74
2019-03-10T09:48:55.111Z,99457.73
2019-03-10T09:52:12.819Z,99446.88
2019-03-10T09:55:01.085Z,99437.80
2019-03-10T09:57:54.197Z,99430.70
2019-03-10T10:21:33.875Z,99385.66
2019-03-10T10:27:39.975Z,99400.86
2019-03-10T10:30:28.479Z,99391.59
2019-03-10T10:33:17.767Z,99379.56
2019-03-10T10:36:04.815Z,99369.30
2019-03-10T10:38:53.103Z,99360.20
2019-03-10T10:41:40.212Z,99359.20
2019-03-10T10:44:37.914Z,99361.34
2019-03-10T10:47:35.340Z,99360.09
2019-03-10T10:50:15.047Z,99366.25
2019-03-10T10:53:06.207Z,99343.47
2019-03-10T10:55:55.776Z,99355.66
2019-03-10T11:02:19.624Z,99352.47
2019-03-10T11:05:05.462Z,99330.80
2019-03-10T11:07:44.536Z,99321.78
2019-03-10T11:10:31.371Z,99312.89
2019-03-10T11:16:45.419Z,99300.62
2019-03-10T11:19:21.261Z,99289.98
2019-03-10T11:22:13.788Z,99278.86
2019-03-10T11:24:56.734Z,99281.07
2019-03-10T11:27:33.425Z,99277.84
2019-03-10T11:30:27.391Z,99277.03
2019-03-10T11:33:14.006Z,99272.28
2019-03-10T11:35:54.160Z,99267.39
2019-03-10T11:49:50.564Z,99240.35
2019-03-10T11:52:37.866Z,99250.49
2019-03-10T12:07:20.691Z,99236.94
2019-03-10T12:09:50.670Z,99219.48
2019-03-10T12:12:20.986Z,99219.92
2019-03-10T12:14:50.990Z,99198.63
2019-03-10T12:17:20.293Z,99195.75
2019-03-10T12:19:49.597Z,99191.12
2019-03-10T12:22:18.869Z,99187.14
2019-03-10T12:24:48.209Z,99160.92
2019-03-10T12:27:17.628Z,99166.98
2019-03-10T12:29:47.045Z,99172.63
2019-03-10T12:32:16.594Z,99177.53
2019-03-10T12:34:46.010Z,99195.89
2019-03-10T12:37:15.291Z,99191.84
2019-03-10T12:39:44.855Z,99186.23
2019-03-10T12:42:14.284Z,99180.22
2019-03-10T12:44:43.682Z,99199.85
2019-03-10T12:47:13.057Z,99206.58
2019-03-10T12:49:42.485Z,99227.17
2019-03-10T12:52:11.867Z,99187.84
2019-03-10T12:54:41.200Z,99201.84
2019-03-10T12:57:10.469Z,99205.11
2019-03-10T13:01:20.277Z,99195.13
2019-03-10T13:07:49.363Z,99218.73
2019-03-10T13:10:18.855Z,99221.28
2019-03-10T13:12:48.186Z,99273.07
2019-03-10T13:15:22.099Z,99244.84
2019-03-10T13:17:50.293Z,99231.03
2019-03-10T13:20:28.228Z,99280.05
2019-03-10T13:22:50.598Z,99255.39
2019-03-10T13:25:20.688Z,99257.08
2019-03-10T13:27:50.136Z,99273.62
2019-03-10T13:30:19.638Z,99260.13
2019-03-10T13:32:49.102Z,99238.00
2019-03-10T13:35:18.707Z,99241.70
2019-03-10T13:37:48.147Z,99231.23
2019-03-10T13:40:17.604Z,99243.03
2019-03-10T13:42:46.964Z,99252.34
2019-03-10T13:45:16.406Z,99236.95
2019-03-10T13:47:45.927Z,99251.80
2019-03-10T13:50:15.077Z,99244.91
2019-03-10T13:52:44.500Z,99234.45
2019-03-10T13:55:14.065Z,99242.73
2019-03-10T13:57:43.622Z,99239.34
2019-03-10T14:00:13.725Z,99233.59
2019-03-10T14:02:43.074Z,99275.45
2019-03-10T14:05:12.535Z,99230.40
2019-03-10T14:07:42.085Z,99246.44
2019-03-10T14:10:11.347Z,99224.33
2019-03-10T14:12:40.972Z,99229.38
2019-03-10T14:15:10.709Z,99254.55
2019-03-10T14:17:40.285Z,99235.97
2019-03-10T14:20:10.226Z,99261.48
2019-03-10T14:22:39.919Z,99284.09
2019-03-10T14:25:09.805Z,99311.80
2019-03-10T14:27:39.797Z,99337.16
2019-03-10T14:31:25.033Z,99371.45
2019-03-10T14:36:13.349Z,99437.37
2019-03-10T15:03:30.419Z,99836.83
2019-03-10T15:06:01.436Z,99861.53
2019-03-10T15:08:30.565Z,99885.34
2019-03-10T15:10:59.682Z,99903.14
2019-03-10T15:13:28.786Z,99931.59
2019-03-10T15:15:57.948Z,99940.73
2019-03-10T15:18:27.067Z,99960.38
2019-03-10T15:20:56.222Z,99986.33
2019-03-10T15:24:59.233Z,99999.13
2019-03-10T15:39:58.630Z,100114.67
2019-03-10T15:42:28.079Z,100118.30
2019-03-10T15:44:57.198Z,100123.51
2019-03-10T15:52:32.580Z,100163.27
2019-03-10T16:03:31.381Z,100215.85
2019-03-10T16:13:58.487Z,100267.64
2019-03-10T16:28:36.847Z,100320.91
2019-03-10T16:31:08.957Z,100320.80
2019-03-10T16:35:56.039Z,100332.05
2019-03-10T16:37:37.883Z,100340.36
2019-03-10T16:40:10.940Z,100347.94
2019-03-10T16:44:29.268Z,100359.19
2019-03-10T16:55:30.450Z,100366.66
2019-03-10T17:19:11.656Z,100413.73
2019-03-10T17:30:59.489Z,100449.00
2019-03-10T17:47:53.508Z,100535.73
2019-03-10T18:01:35.063Z,100550.04
2019-03-10T18:21:05.079Z,100569.37
2019-03-10T18:25:11.061Z,100563.73
2019-03-10T18:31:44.372Z,100577.53
2019-03-10T18:34:17.320Z,100586.52
2019-03-10T18:36:46.569Z,100568.72
2019-03-10T18:39:15.898Z,100562.16
2019-03-10T18:51:39.262Z,100578.93
2019-03-10T18:54:34.476Z,100596.22
2019-03-10T18:57:21.210Z,100598.83
2019-03-10T19:12:49.546Z,100623.44
2019-03-10T19:15:18.799Z,100637.71
2019-03-10T19:17:48.643Z,100636.37
2019-03-10T19:20:18.664Z,100670.03
2019-03-10T19:22:48.123Z,100687.08
2019-03-10T19:25:17.318Z,100702.75
2019-03-10T19:28:11.224Z,100705.83
2019-03-10T19:34:37.341Z,100733.06
2019-03-10T19:41:04.331Z,100688.95
2019-03-10T19:44:33.866Z,100685.55
2019-03-10T19:50:51.513Z,100675.41
2019-03-10T19:53:21.196Z,100677.31
2019-03-10T19:55:50.711Z,100684.30
2019-03-10T19:58:20.178Z,100679.89
2019-03-10T20:00:51.159Z,100686.63
2019-03-10T20:03:20.442Z,100687.20
2019-03-10T20:13:18.285Z,100691.95
2019-03-10T20:15:47.613Z,100694.64
2019-03-10T20:26:10.429Z,100690.36
2019-03-10T20:28:40.722Z,100689.89
2019-03-10T20:31:09.942Z,100687.50
2019-03-10T20:33:39.225Z,100692.36
2019-03-10T20:36:08.385Z,100686.69
2019-03-10T20:38:37.620Z,100686.69
2019-03-10T20:41:07.233Z,100690.46
2019-03-10T20:44:17.199Z,100694.83
2019-03-10T20:46:46.990Z,100695.69
2019-03-10T20:49:16.562Z,100707.31
2019-03-10T20:51:46.128Z,100700.96
2019-03-10T20:54:15.463Z,100707.09
2019-03-10T20:56:44.767Z,100703.83
2019-03-10T20:59:14.754Z,100700.39
2019-03-10T21:01:44.110Z,100695.37
2019-03-10T21:04:13.340Z,100701.72
2019-03-10T21:06:42.566Z,100708.77
2019-03-10T21:09:11.857Z,100713.12
2019-03-10T21:11:41.205Z,100713.88
2019-03-10T21:14:10.703Z,100714.36
2019-03-10T21:16:40.040Z,100713.98
2019-03-10T21:19:09.482Z,100716.28
2019-03-10T21:21:38.831Z,100710.44
2019-03-10T21:40:43.516Z,100737.31
2019-03-10T21:43:46.619Z,100735.33
2019-03-10T21:51:57.533Z,100736.83
2019-03-10T21:54:36.900Z,100745.73
2019-03-10T22:04:32.751Z,100741.52
2019-03-10T22:10:59.244Z,100732.55
2019-03-10T22:13:28.605Z,100733.45
2019-03-10T22:15:57.963Z,100728.37
2019-03-10T22:18:27.217Z,100730.57
2019-03-10T22:22:30.036Z,100726.45
2019-03-10T22:24:59.214Z,100729.14
2019-03-10T22:27:28.482Z,100722.75
2019-03-10T22:29:57.943Z,100726.74
2019-03-10T22:32:26.910Z,100722.41
2019-03-10T22:34:56.085Z,100712.35
2019-03-10T22:37:25.369Z,100711.45
2019-03-10T22:39:54.561Z,100702.68
2019-03-10T22:42:23.608Z,100695.75
2019-03-10T22:44:52.730Z,100695.75
2019-03-10T22:55:33.563Z,100692.30
2019-03-10T22:59:13.333Z,100690.09
2019-03-10T23:14:15.531Z,100725.58
2019-03-10T23:16:45.141Z,100717.63
2019-03-10T23:19:14.275Z,100714.65
2019-03-10T23:27:12.915Z,100711.15
2019-03-10T23:41:56.620Z,100665.36
2019-03-10T23:44:48.959Z,100674.69
2019-03-10T23:47:18.507Z,100673.73
2019-03-10T23:49:47.753Z,100672.73
2019-03-10T23:53:11.808Z,100666.29
